Time;durP1;ratioP1;P1;durP2;ratioP2;P2;SDS_P1;SDS_P2;PMS_P1;PMS_P2;Temp;Humidity;BMP_temperature;BMP_pressure;BME280_temperature;BME280_humidity;BME280_pressure;Samples;Min_cycle;Max_cycle;Signal;HPM_P1;HPM_P2
2023/09/05 00:03:11;;;;;;;;;;;;;;;;;;4948457;28;19929;-60
2023/09/05 00:06:31;;;;;;;;;;;;;;;;;;4952319;28;20021;-61
2023/09/05 00:09:51;;;;;;;;;;;;;;;;;;4945775;28;20445;-61
2023/09/05 00:13:11;;;;;;;;;;;;;;;;;;4944502;28;20017;-61
2023/09/05 00:16:32;;;;;;;;;;;;;;;;;;4949271;28;19922;-62
2023/09/05 00:19:52;;;;;;;;;;;;;;;;;;4969519;28;20385;-62
2023/09/05 00:23:12;;;;;;;;;;;;;;;;;;5019109;28;20016;-62
2023/09/05 00:26:33;;;;;;;;;;;;;;;;;;5019619;28;20625;-62
2023/09/05 00:29:53;;;;;;;;;;;;;;;;;;5019571;28;21363;-63
2023/09/05 00:33:13;;;;;;;;;;;;;;;;;;5019712;28;19921;-60
2023/09/05 00:36:33;;;;;;;;;;;;;;;;;;5026142;28;20404;-62
2023/09/05 00:39:54;;;;;;;;;;;;;;;;;;5019584;28;19928;-61
2023/09/05 00:43:14;;;;;;;;;;;;;;;;;;5022114;28;20441;-61
2023/09/05 00:46:34;;;;;;;;;;;;;;;;;;5018418;28;19928;-62
2023/09/05 00:49:54;;;;;;;;;;;;;;;;;;5017799;28;19921;-61
2023/09/05 00:53:15;;;;;;;;;;;;;;;;;;5023100;28;19960;-61
2023/09/05 00:56:35;;;;;;;;;;;;;;;;;;5026060;28;19975;-60
2023/09/05 00:59:55;;;;;;;;;;;;;;;;;;5019353;28;20277;-62
2023/09/05 01:03:15;;;;;;;;;;;;;;;;;;5018214;28;19988;-61
2023/09/05 01:06:37;;;;;;;;;;;;;;;;;;5025884;28;19936;-62
2023/09/05 01:09:48;;;;;;;;;;;;;;;;;;5027082;28;20376;-60
2023/09/05 01:13:09;;;;;;;;;;;;;;;;;;5026221;28;20024;-64
2023/09/05 01:16:30;;;;;;;;;;;;;;;;;;5030023;28;19925;-61
2023/09/05 01:19:53;;;;;;;;;;;;;;;;;;5024024;28;20329;-62
2023/09/05 01:23:00;;;;;;;;;;;;;;;;;;5022692;28;19928;-62
2023/09/05 01:25:27;;;;;;;;;;;;;;;;;;5033305;28;19925;-61
2023/09/05 01:27:53;;;;;;;;;;;;;;;;;;5032230;28;19967;-61
2023/09/05 01:30:19;;;;;;;;;;;;;;;;;;5027807;28;20011;-61
2023/09/05 01:32:46;;;;;;;;;;;;;;;;;;5028124;28;20295;-60
2023/09/05 01:35:11;;;;;;;;;;;;;;;;;;5022882;28;19925;-61
2023/09/05 01:37:37;;;;;;;;;;;;;;;;;;5024647;28;20373;-61
2023/09/05 01:40:04;;;;;;;;;;;;;;;;;;5026221;28;19921;-60
2023/09/05 01:42:30;;;;;;;;;;;;;;;;;;5027457;28;19921;-60
2023/09/05 01:44:56;;;;;;;;;;;;;;;;;;5023579;28;19969;-61
2023/09/05 01:47:21;;;;;;;;;;;;;;;;;;5027520;28;20346;-62
2023/09/05 01:49:47;;;;;;;;;;;;;;;;;;5024886;28;19926;-65
2023/09/05 01:52:13;;;;;;;;;;;;;;;;;;5029469;28;19976;-60
2023/09/05 01:54:41;;;;;;;;;;;;;;;;;;5024410;28;20517;-63
2023/09/05 01:57:07;;;;;;;;;;;;;;;;;;5031512;28;19928;-60
2023/09/05 01:59:33;;;;;;;;;;;;;;;;;;5029089;28;20347;-60
2023/09/05 02:01:58;;;;;;;;;;;;;;;;;;5025913;28;20022;-61
2023/09/05 02:04:24;;;;;;;;;;;;;;;;;;5024513;28;20556;-64
2023/09/05 02:06:50;;;;;;;;;;;;;;;;;;5029217;28;19921;-60
2023/09/05 02:09:16;;;;;;;;;;;;;;;;;;5034057;28;19963;-63
2023/09/05 02:11:41;;;;;;;;;;;;;;;;;;5026594;28;20369;-60
2023/09/05 02:14:07;;;;;;;;;;;;;;;;;;5016975;28;19929;-59
2023/09/05 02:16:33;;;;;;;;;;;;;;;;;;5027620;28;19975;-59
2023/09/05 02:18:59;;;;;;;;;;;;;;;;;;5023239;28;20005;-60
2023/09/05 02:21:25;;;;;;;;;;;;;;;;;;5027503;28;19925;-60
2023/09/05 02:23:50;;;;;;;;;;;;;;;;;;5026025;28;19928;-61
2023/09/05 02:26:16;;;;;;;;;;;;;;;;;;5027923;28;19947;-59
2023/09/05 02:28:42;;;;;;;;;;;;;;;;;;5029005;28;19921;-61
2023/09/05 02:31:08;;;;;;;;;;;;;;;;;;5019698;28;19922;-61
2023/09/05 02:33:36;;;;;;;;;;;;;;;;;;5028045;28;19921;-60
2023/09/05 02:36:17;;;;;;;;;;;;;;;;;;5026441;28;19925;-61
2023/09/05 02:38:43;;;;;;;;;;;;;;;;;;5017841;28;19921;-59
2023/09/05 02:41:10;;;;;;;;;;;;;;;;;;5024544;28;19921;-60
2023/09/05 02:43:36;;;;;;;;;;;;;;;;;;5025584;28;20293;-62
2023/09/05 02:46:04;;;;;;;;;;;;;;;;;;5023354;28;19924;-60
2023/09/05 02:48:29;;;;;;;;;;;;;;;;;;5029519;28;20281;-60
2023/09/05 02:51:00;;;;;;;;;;;;;;;;;;5029202;28;19921;-61
2023/09/05 02:53:26;;;;;;;;;;;;;;;;;;5029829;28;20024;-62
2023/09/05 02:55:52;;;;;;;;;;;;;;;;;;5033855;28;19921;-62
2023/09/05 02:58:19;;;;;;;;;;;;;;;;;;5027942;28;19929;-61
2023/09/05 03:00:49;;;;;;;;;;;;;;;;;;5029499;28;20073;-60
2023/09/05 03:03:16;;;;;;;;;;;;;;;;;;5028197;28;19963;-67
2023/09/05 03:05:43;;;;;;;;;;;;;;;;;;5027738;28;19921;-61
2023/09/05 03:08:08;;;;;;;;;;;;;;;;;;5030886;28;20399;-60
2023/09/05 03:10:34;;;;;;;;;;;;;;;;;;5027618;28;19921;-60
2023/09/05 03:13:00;;;;;;;;;;;;;;;;;;5025667;28;19929;-61
2023/09/05 03:15:26;;;;;;;;;;;;;;;;;;5028499;28;19940;-61
2023/09/05 03:17:51;;;;;;;;;;;;;;;;;;5024678;28;19925;-61
2023/09/05 03:20:18;;;;;;;;;;;;;;;;;;5026977;28;19974;-61
2023/09/05 03:22:44;;;;;;;;;;;;;;;;;;5020790;28;20395;-61
2023/09/05 03:25:10;;;;;;;;;;;;;;;;;;5027027;28;19951;-62
2023/09/05 03:27:36;;;;;;;;;;;;;;;;;;5022195;28;20103;-64
2023/09/05 03:30:02;;;;;;;;;;;;;;;;;;5024943;28;19967;-61
2023/09/05 03:32:27;;;;;;;;;;;;;;;;;;5028214;28;19925;-61
2023/09/05 03:34:53;;;;;;;;;;;;;;;;;;5024877;28;19922;-60
2023/09/05 03:37:19;;;;;;;;;;;;;;;;;;5026351;28;20393;-62
2023/09/05 03:39:45;;;;;;;;;;;;;;;;;;5030307;28;19921;-61
2023/09/05 03:42:11;;;;;;;;;;;;;;;;;;5006240;28;19944;-61
2023/09/05 03:44:37;;;;;;;;;;;;;;;;;;5027659;28;19927;-61
2023/09/05 03:47:02;;;;;;;;;;;;;;;;;;5010337;28;20292;-62
2023/09/05 03:49:28;;;;;;;;;;;;;;;;;;5028377;28;20292;-61
2023/09/05 03:51:57;;;;;;;;;;;;;;;;;;5027343;28;19925;-61
2023/09/05 03:54:23;;;;;;;;;;;;;;;;;;5002913;28;19921;-63
2023/09/05 03:56:48;;;;;;;;;;;;;;;;;;5021708;28;19921;-60
2023/09/05 03:59:15;;;;;;;;;;;;;;;;;;5026615;28;19935;-61
2023/09/05 04:01:40;;;;;;;;;;;;;;;;;;5024307;28;19925;-61
2023/09/05 04:04:29;;;;;;;;;;;;;;;;;;5020587;28;20383;-60
2023/09/05 04:07:50;;;;;;;;;;;;;;;;;;5020963;28;19921;-60
2023/09/05 04:11:11;;;;;;;;;;;;;;;;;;5014637;28;20026;-65
2023/09/05 04:14:31;;;;;;;;;;;;;;;;;;5024062;28;19929;-61
2023/09/05 04:17:51;;;;;;;;;;;;;;;;;;5028450;28;20422;-62
2023/09/05 04:21:18;;;;;;;;;;;;;;;;;;5030875;28;19921;-60
2023/09/05 04:24:38;;;;;;;;;;;;;;;;;;5013039;28;20428;-60
2023/09/05 04:27:58;;;;;;;;;;;;;;;;;;5016654;28;20234;-61
2023/09/05 04:31:21;;;;;;;;;;;;;;;;;;5017989;28;20018;-61
2023/09/05 04:34:42;;;;;;;;;;;;;;;;;;5017171;28;20012;-60
2023/09/05 04:38:02;;;;;;;;;;;;;;;;;;5021937;28;19926;-61
2023/09/05 04:41:22;;;;;;;;;;;;;;;;;;5023498;28;20392;-61
2023/09/05 04:44:43;;;;;;;;;;;;;;;;;;5018675;28;19925;-62
2023/09/05 04:48:04;;;;;;;;;;;;;;;;;;5020862;28;19944;-61
2023/09/05 04:51:24;;;;;;;;;;;;;;;;;;5024901;28;19928;-60
2023/09/05 04:54:45;;;;;;;;;;;;;;;;;;5026971;28;19956;-65
2023/09/05 04:58:06;;;;;;;;;;;;;;;;;;5020464;28;19928;-62
